Time;durP1;ratioP1;P1;durP2;ratioP2;P2;SDS_P1;SDS_P2;PMS_P1;PMS_P2;Temp;Humidity;BMP_temperature;BMP_pressure;BME280_temperature;BME280_humidity;BME280_pressure;Samples;Min_cycle;Max_cycle;Signal;HPM_P1;HPM_P2
2023/09/06 07:06:08;;;;;;;6.30;4.50;;;;;;;20.79;55.05;100518.21;106009;1253;60536;-76
2023/09/06 07:08:38;;;;;;;5.80;4.90;;;;;;;20.97;54.54;100511.67;105900;1251;60495;-77
2023/09/06 07:11:06;;;;;;;7.80;4.60;;;;;;;21.14;53.93;100514.08;105808;1253;60464;-77
2023/09/06 07:13:34;;;;;;;5.40;4.10;;;;;;;21.31;53.68;100511.63;106098;1258;72534;-77
2023/09/06 07:16:03;;;;;;;7.10;4.30;;;;;;;21.52;53.64;100508.73;106125;1251;69280;-77
2023/09/06 07:18:31;;;;;;;5.50;4.60;;;;;;;21.75;53.72;100502.87;106067;1252;72475;-77
2023/09/06 07:20:58;;;;;;;6.50;4.00;;;;;;;21.96;53.05;100502.20;105880;1253;60481;-78
2023/09/06 07:23:26;;;;;;;6.70;4.30;;;;;;;22.14;52.75;100501.65;106037;1256;60540;-77
2023/09/06 07:25:53;;;;;;;7.00;4.80;;;;;;;22.32;52.25;100497.07;106066;1254;73089;-77
2023/09/06 07:28:23;;;;;;;7.60;4.30;;;;;;;22.51;51.97;100499.64;106563;1252;67920;-77
2023/09/06 07:30:50;;;;;;;7.20;3.90;;;;;;;22.69;51.14;100497.79;106810;1256;72362;-78
2023/09/06 07:33:16;;;;;;;7.90;5.00;;;;;;;22.76;50.74;100502.48;107604;1253;60425;-76
2023/09/06 07:35:43;;;;;;;5.10;4.40;;;;;;;22.81;50.73;100499.94;105948;1256;60491;-77
2023/09/06 07:38:10;;;;;;;8.50;4.50;;;;;;;22.90;50.76;100501.02;105893;1257;73915;-78
2023/09/06 07:40:36;;;;;;;6.90;4.20;;;;;;;23.07;50.58;100495.88;105953;1254;70237;-78
2023/09/06 07:43:03;;;;;;;5.50;4.10;;;;;;;23.25;50.49;100498.02;105917;1252;72513;-77
2023/09/06 07:45:31;;;;;;;8.30;4.60;;;;;;;23.42;49.82;100497.94;105889;1251;60545;-77
2023/09/06 07:47:58;;;;;;;6.30;4.10;;;;;;;23.55;49.75;100500.86;106046;1255;60408;-77
2023/09/06 07:50:24;;;;;;;7.00;4.90;;;;;;;23.67;49.27;100495.54;106077;1253;72288;-78
2023/09/06 07:52:52;;;;;;;5.50;3.90;;;;;;;23.76;49.03;100495.44;106230;1255;70136;-78
2023/09/06 07:55:18;;;;;;;6.90;3.90;;;;;;;23.85;48.65;100492.70;107608;1253;72712;-78
2023/09/06 07:57:45;;;;;;;6.20;4.50;;;;;;;23.95;48.55;100489.72;108504;1251;60438;-77
2023/09/06 08:00:12;;;;;;;6.30;4.70;;;;;;;24.07;48.48;100497.31;108066;1253;60482;-77
2023/09/06 08:02:39;;;;;;;8.40;4.50;;;;;;;24.17;48.35;100495.13;106170;1256;73822;-79
2023/09/06 08:05:08;;;;;;;6.00;4.80;;;;;;;24.27;47.84;100497.06;105904;1253;70238;-80
2023/09/06 08:07:36;;;;;;;6.90;5.00;;;;;;;24.31;48.01;100494.66;106056;1253;72733;-79
2023/09/06 08:10:17;;;;;;;5.60;4.30;;;;;;;24.38;47.98;100498.41;105956;1254;60441;-78
2023/09/06 08:12:44;;;;;;;7.30;4.90;;;;;;;24.42;47.66;100497.09;106034;1253;60610;-79
2023/09/06 08:15:10;;;;;;;10.20;4.80;;;;;;;24.41;47.82;100490.02;106121;1256;60407;-78
2023/09/06 08:17:37;;;;;;;5.70;4.30;;;;;;;24.47;47.82;100489.07;106065;1255;68933;-79
2023/09/06 08:20:08;;;;;;;5.40;4.50;;;;;;;24.57;47.52;100487.80;106005;1254;72480;-78
2023/09/06 08:22:36;;;;;;;9.40;4.60;;;;;;;24.66;47.29;100490.90;106063;1251;60440;-77
2023/09/06 08:25:12;;;;;;;7.10;4.80;;;;;;;24.70;46.98;100488.00;105988;1252;60552;-78
2023/09/06 08:27:39;;;;;;;6.40;4.80;;;;;;;24.61;46.88;100486.73;106175;1254;73896;-77
2023/09/06 08:30:13;;;;;;;6.90;4.70;;;;;;;24.48;47.18;100486.80;106101;1251;70218;-78
2023/09/06 08:32:40;;;;;;;5.50;4.30;;;;;;;24.48;47.63;100484.34;106213;1254;72395;-78
2023/09/06 08:35:08;;;;;;;6.60;4.70;;;;;;;24.54;47.34;100482.60;106123;1256;60443;-77
2023/09/06 08:37:35;;;;;;;5.50;4.40;;;;;;;24.63;47.44;100479.92;106192;1251;61038;-77
2023/09/06 08:40:05;;;;;;;7.60;4.40;;;;;;;24.79;47.18;100479.08;106048;1256;73034;-76
2023/09/06 08:42:35;;;;;;;8.30;4.40;;;;;;;24.95;46.66;100476.48;106170;1251;70308;-76
2023/09/06 08:45:04;;;;;;;7.70;4.80;;;;;;;25.10;46.10;100467.70;106092;1250;72687;-77
2023/09/06 08:47:31;;;;;;;8.00;4.50;;;;;;;25.26;45.85;100474.62;106099;1254;60556;-76
2023/09/06 08:49:58;;;;;;;8.70;4.80;;;;;;;25.40;45.74;100474.95;106380;1258;60502;-76
2023/09/06 08:52:25;;;;;;;6.60;4.80;;;;;;;25.51;45.47;100475.71;106572;1256;74679;-77
2023/09/06 08:54:51;;;;;;;5.70;4.20;;;;;;;25.57;44.99;100475.42;106838;1256;70410;-77
2023/09/06 08:57:19;;;;;;;4.70;3.90;;;;;;;25.63;44.75;100469.97;106692;1254;71219;-76
2023/09/06 08:59:47;;;;;;;4.40;4.00;;;;;;;25.74;44.91;100465.81;107112;1253;60864;-76
2023/09/06 09:02:14;;;;;;;5.80;4.00;;;;;;;25.97;44.48;100466.30;106753;1254;60533;-77
2023/09/06 09:04:42;;;;;;;6.80;4.30;;;;;;;26.36;43.63;100464.54;106749;1254;74021;-76
2023/09/06 09:07:10;;;;;;;8.90;5.10;;;;;;;26.78;42.79;100466.91;107163;1251;68769;-76
2023/09/06 09:10:05;;;;;;;6.00;3.50;;;;;;;27.26;42.10;100467.00;107083;1259;72346;-76
2023/09/06 09:12:32;;;;;;;5.30;4.00;;;;;;;27.84;41.04;100456.84;106761;1254;60503;-77
2023/09/06 09:14:59;;;;;;;6.70;4.00;;;;;;;28.36;41.01;100454.92;106228;1264;60454;-80
2023/09/06 09:17:44;;;;;;;4.90;4.00;;;;;;;29.18;40.12;100448.09;106100;1258;73945;-77
2023/09/06 09:20:26;;;;;;;5.00;4.30;;;;;;;30.02;38.81;100446.15;106036;1253;68980;-76
2023/09/06 09:22:58;;;;;;;4.30;3.90;;;;;;;30.63;37.47;100448.08;105939;1257;73073;-77
2023/09/06 09:25:24;;;;;;;4.90;4.00;;;;;;;30.96;36.44;100450.11;106058;1255;60763;-77
2023/09/06 09:27:55;;;;;;;6.10;4.40;;;;;;;31.02;36.28;100447.65;105988;1255;60334;-78
2023/09/06 09:30:22;;;;;;;6.10;4.40;;;;;;;31.08;36.39;100445.84;106030;1251;73749;-77
2023/09/06 09:32:55;;;;;;;5.80;4.00;;;;;;;31.33;35.89;100441.33;105977;1256;68718;-77
2023/09/06 09:35:22;;;;;;;4.60;4.10;;;;;;;31.58;35.76;100439.93;105985;1253;71642;-78
2023/09/06 09:37:52;;;;;;;4.90;3.90;;;;;;;31.95;35.67;100437.58;105824;1257;61325;-77
2023/09/06 09:40:22;;;;;;;6.10;4.20;;;;;;;32.50;35.13;100429.58;105980;1256;60154;-78
2023/09/06 09:42:56;;;;;;;4.10;3.70;;;;;;;33.17;34.55;100424.55;105977;1256;74046;-77
2023/09/06 09:45:24;;;;;;;4.10;3.50;;;;;;;33.87;33.74;100422.77;106094;1256;70385;-76
2023/09/06 09:47:55;;;;;;;6.20;3.80;;;;;;;34.49;32.84;100424.39;105996;1256;72926;-78
2023/09/06 09:50:23;;;;;;;5.00;3.70;;;;;;;34.95;32.04;100424.37;106221;1255;60429;-77
2023/09/06 09:52:50;;;;;;;4.00;3.60;;;;;;;35.22;31.24;100427.79;106275;1256;59356;-78
2023/09/06 09:55:16;;;;;;;4.80;3.60;;;;;;;35.28;31.20;100431.17;105978;1258;65280;-77
2023/09/06 09:57:44;;;;;;;5.30;3.70;;;;;;;35.40;31.00;100428.19;106071;1255;61568;-77
2023/09/06 10:00:14;;;;;;;3.80;3.50;;;;;;;35.71;30.58;100424.34;106230;1251;63942;-77
2023/09/06 10:02:41;;;;;;;4.60;3.20;;;;;;;36.04;30.31;100421.61;106143;1251;60527;-77
2023/09/06 10:05:12;;;;;;;5.90;3.60;;;;;;;36.35;29.90;100420.70;106035;1256;60764;-78
2023/09/06 10:07:41;;;;;;;4.90;3.80;;;;;;;36.48;29.84;100408.55;106041;1256;66402;-77
2023/09/06 10:10:15;;;;;;;3.70;3.40;;;;;;;36.51;29.67;100414.70;106072;1254;61513;-78
2023/09/06 10:12:44;;;;;;;4.20;3.80;;;;;;;36.21;29.39;100426.07;106102;1256;63978;-77
2023/09/06 10:15:13;;;;;;;4.20;3.40;;;;;;;35.71;30.05;100429.60;106246;1250;60398;-78
2023/09/06 10:17:43;;;;;;;3.60;3.10;;;;;;;35.62;30.38;100427.98;106412;1256;60342;-78
2023/09/06 10:20:12;;;;;;;5.50;3.00;;;;;;;35.93;30.04;100425.38;106783;1259;65079;-76
2023/09/06 10:22:52;;;;;;;3.90;3.20;;;;;;;36.39;29.84;100420.81;106898;1256;61607;-75
2023/09/06 10:25:19;;;;;;;3.80;3.30;;;;;;;36.99;28.90;100413.77;107008;1259;72417;-77
2023/09/06 10:27:47;;;;;;;3.40;3.10;;;;;;;37.37;28.73;100409.27;106688;1256;60439;-77
2023/09/06 10:30:19;;;;;;;3.40;3.10;;;;;;;37.59;28.16;100410.24;106234;1254;60342;-76
2023/09/06 10:32:47;;;;;;;3.40;2.80;;;;;;;37.28;28.33;100407.86;106194;1256;65138;-76
2023/09/06 10:35:24;;;;;;;6.60;3.60;;;;;;;36.81;28.74;100410.50;106055;1256;60786;-78
2023/09/06 10:38:24;;;;;;;5.20;3.10;;;;;;;36.20;29.57;100413.55;106062;1256;64000;-76
2023/09/06 10:40:50;;;;;;;5.80;3.20;;;;;;;35.50;30.03;100416.08;105788;1251;60622;-78
2023/09/06 10:43:19;;;;;;;6.90;3.60;;;;;;;34.91;30.60;100419.29;105986;1257;60446;-80
2023/09/06 10:46:07;;;;;;;5.80;3.40;;;;;;;34.50;31.26;100417.42;106015;1251;65316;-78
2023/09/06 10:48:34;;;;;;;3.90;3.10;;;;;;;34.27;31.66;100413.11;105935;1256;70297;-78
2023/09/06 10:51:08;;;;;;;4.80;3.60;;;;;;;34.29;31.96;100411.83;106007;1254;72675;-78
2023/09/06 10:53:38;;;;;;;4.20;3.20;;;;;;;34.33;32.00;100409.07;105992;1255;60440;-77
2023/09/06 10:56:06;;;;;;;3.90;3.50;;;;;;;34.22;31.98;100409.52;105981;1256;60502;-77
2023/09/06 10:58:36;;;;;;;3.70;3.30;;;;;;;34.02;32.22;100411.20;105904;1256;72399;-76
2023/09/06 11:01:18;;;;;;;7.60;3.20;;;;;;;33.77;32.44;100410.42;105710;1257;68975;-77
2023/09/06 11:03:50;;;;;;;3.60;3.30;;;;;;;33.34;32.83;100412.23;106005;1257;73304;-78
2023/09/06 11:06:18;;;;;;;4.50;3.50;;;;;;;32.86;33.28;100409.05;105966;1251;60551;-78
2023/09/06 11:08:46;;;;;;;4.20;3.50;;;;;;;32.59;33.65;100411.02;106204;1256;61302;-77
2023/09/06 11:11:14;;;;;;;4.00;3.40;;;;;;;32.59;33.89;100402.84;105968;1258;74333;-76
2023/09/06 11:13:42;;;;;;;5.00;3.80;;;;;;;32.66;33.78;100400.80;106027;1257;71652;-75
2023/09/06 11:16:13;;;;;;;4.80;3.60;;;;;;;32.67;33.77;100396.77;106008;1255;73134;-77
2023/09/06 11:18:47;;;;;;;7.00;3.80;;;;;;;32.81;33.58;100395.77;106108;1257;60307;-76
2023/09/06 11:21:18;;;;;;;4.10;3.70;;;;;;;32.91;33.37;100396.20;106087;1255;60433;-77
2023/09/06 11:23:49;;;;;;;6.00;3.30;;;;;;;32.84;33.42;100395.71;106129;1257;73782;-77
2023/09/06 11:26:16;;;;;;;5.00;3.20;;;;;;;32.64;33.75;100392.68;106157;1251;70841;-77
2023/09/06 11:28:43;;;;;;;4.60;3.70;;;;;;;32.35;33.92;100392.27;106195;1256;72693;-77
2023/09/06 11:31:22;;;;;;;3.40;3.00;;;;;;;32.13;34.01;100386.89;106364;1255;60460;-76
2023/09/06 11:34:01;;;;;;;3.50;3.10;;;;;;;32.23;34.32;100382.91;107474;1258;60441;-76
2023/09/06 11:36:32;;;;;;;3.90;3.20;;;;;;;32.64;34.05;100375.40;106643;1256;74336;-77
2023/09/06 11:39:10;;;;;;;3.20;2.90;;;;;;;33.41;33.35;100367.54;106515;1258;70500;-77
2023/09/06 11:41:39;;;;;;;5.20;3.20;;;;;;;34.42;32.42;100359.95;107209;1257;72495;-78
2023/09/06 11:44:09;;;;;;;3.70;3.10;;;;;;;35.26;31.93;100362.59;108106;1251;59195;-78
2023/09/06 11:46:38;;;;;;;3.50;3.20;;;;;;;36.12;30.96;100354.90;107779;1256;59247;-76
2023/09/06 11:49:06;;;;;;;6.30;3.10;;;;;;;36.67;30.06;100354.80;106519;1251;65066;-78
2023/09/06 11:51:33;;;;;;;5.80;3.00;;;;;;;37.13;29.83;100344.41;106263;1256;69269;-76
2023/09/06 11:54:00;;;;;;;3.20;2.90;;;;;;;37.66;29.56;100347.00;105900;1253;63845;-77
2023/09/06 11:56:31;;;;;;;3.70;3.10;;;;;;;38.29;28.77;100345.92;106016;1254;60429;-76
2023/09/06 11:58:59;;;;;;;4.50;3.10;;;;;;;38.98;28.17;100339.13;106344;1252;60882;-77
2023/09/06 12:01:26;;;;;;;4.80;2.80;;;;;;;39.35;27.34;100336.79;106127;1256;65156;-77
2023/09/06 12:03:53;;;;;;;3.30;3.00;;;;;;;39.06;27.68;100333.73;105936;1251;61737;-75
2023/09/06 12:06:20;;;;;;;4.10;2.80;;;;;;;38.78;28.05;100333.47;105975;1256;63836;-76
2023/09/06 12:08:47;;;;;;;3.10;2.80;;;;;;;38.78;27.82;100329.83;105802;1255;60508;-77
2023/09/06 12:11:20;;;;;;;4.10;2.80;;;;;;;38.58;27.89;100326.06;105919;1252;60457;-76
2023/09/06 12:13:47;;;;;;;4.00;2.80;;;;;;;38.15;28.44;100323.52;105996;1256;65090;-78
2023/09/06 12:16:15;;;;;;;4.10;3.50;;;;;;;37.77;28.64;100320.52;106169;1251;61628;-76
2023/09/06 12:18:42;;;;;;;3.30;3.00;;;;;;;37.83;28.94;100318.95;106013;1254;64139;-77
2023/09/06 12:21:09;;;;;;;3.50;2.60;;;;;;;38.28;28.53;100312.96;105946;1256;60547;-77
2023/09/06 12:23:35;;;;;;;2.90;2.60;;;;;;;38.74;28.05;100313.34;106114;1251;60409;-76
2023/09/06 12:26:05;;;;;;;3.00;2.70;;;;;;;39.11;27.90;100313.01;106616;1254;65290;-79
2023/09/06 12:28:33;;;;;;;2.70;2.50;;;;;;;39.29;27.49;100311.70;106313;1255;70169;-76
2023/09/06 12:31:03;;;;;;;2.70;2.50;;;;;;;39.09;27.70;100313.11;106207;1257;64090;-77
2023/09/06 12:33:47;;;;;;;;;;;;;;;38.73;27.95;100316.58;106094;1260;60475;-80
2023/09/06 12:36:16;;;;;;;3.90;2.90;;;;;;;38.35;28.14;100316.01;106404;1251;60432;-81
2023/09/06 12:38:43;;;;;;;2.70;2.50;;;;;;;37.80;28.44;100317.92;106423;1251;65607;-81
2023/09/06 12:41:11;;;;;;;4.10;2.30;;;;;;;37.14;28.87;100316.59;106341;1251;61385;-79
2023/09/06 12:43:38;;;;;;;3.90;2.60;;;;;;;36.53;29.50;100318.67;107488;1253;65962;-79
2023/09/06 12:46:08;;;;;;;3.20;2.70;;;;;;;35.88;30.14;100320.64;108258;1252;60284;-79
2023/09/06 12:48:34;;;;;;;3.20;2.50;;;;;;;35.31;30.67;100320.55;107868;1251;59084;-77
2023/09/06 12:51:03;;;;;;;3.90;3.00;;;;;;;34.96;31.21;100328.91;106350;1258;65085;-78
2023/09/06 12:53:32;;;;;;;3.00;2.80;;;;;;;34.58;31.66;100324.70;106294;1254;61758;-77
2023/09/06 12:55:59;;;;;;;8.10;3.80;;;;;;;34.22;32.09;100323.10;105976;1251;72393;-78
2023/09/06 12:58:26;;;;;;;6.60;3.20;;;;;;;33.88;32.25;100322.34;106401;1250;61415;-79
2023/09/06 13:00:54;;;;;;;6.90;3.30;;;;;;;33.52;32.56;100322.12;106186;1252;60466;-79
2023/09/06 13:03:21;;;;;;;4.20;2.80;;;;;;;33.08;33.11;100319.56;106188;1254;73833;-77
2023/09/06 13:05:48;;;;;;;3.20;2.80;;;;;;;32.67;33.78;100324.98;106511;1251;70161;-77
2023/09/06 13:08:15;;;;;;;3.80;3.00;;;;;;;32.28;34.36;100318.73;106497;1254;72672;-78
2023/09/06 13:10:42;;;;;;;5.10;3.40;;;;;;;31.86;34.66;100317.73;106205;1251;61478;-79
2023/09/06 13:13:09;;;;;;;3.10;2.70;;;;;;;31.52;35.17;100318.41;106170;1251;60440;-80
2023/09/06 13:15:35;;;;;;;3.90;2.60;;;;;;;31.19;35.52;100323.40;106003;1254;60398;-79
2023/09/06 13:18:03;;;;;;;3.50;3.00;;;;;;;30.89;35.77;100324.48;105998;1255;70290;-78
2023/09/06 13:20:30;;;;;;;3.90;2.50;;;;;;;30.60;36.31;100326.20;105861;1258;72568;-77
2023/09/06 13:22:57;;;;;;;5.00;3.10;;;;;;;30.35;36.55;100320.64;105987;1254;60437;-78
2023/09/06 13:25:24;;;;;;;3.40;2.70;;;;;;;30.12;36.87;100320.41;105815;1254;60540;-78
2023/09/06 13:27:51;;;;;;;5.60;2.90;;;;;;;29.92;37.24;100317.14;106050;1255;74327;-78
2023/09/06 13:30:18;;;;;;;2.90;2.70;;;;;;;29.75;37.56;100313.36;106103;1255;70035;-78
2023/09/06 13:32:45;;;;;;;5.00;2.80;;;;;;;29.60;37.78;100307.48;106063;1257;73891;-79
2023/09/06 13:35:13;;;;;;;3.60;2.80;;;;;;;29.47;38.08;100308.27;106031;1251;60642;-79
2023/09/06 13:37:40;;;;;;;3.00;2.70;;;;;;;29.34;38.39;100301.91;105988;1251;60411;-78
2023/09/06 13:40:08;;;;;;;4.00;2.90;;;;;;;29.22;38.75;100300.65;105986;1257;73910;-78
2023/09/06 13:42:36;;;;;;;4.40;2.20;;;;;;;29.04;38.99;100296.67;105905;1254;70340;-77
2023/09/06 13:45:04;;;;;;;7.00;3.00;;;;;;;28.91;39.20;100297.90;106005;1256;71137;-78
2023/09/06 13:47:31;;;;;;;5.20;2.90;;;;;;;28.79;39.38;100298.36;106253;1251;60437;-77
2023/09/06 13:49:58;;;;;;;5.30;2.80;;;;;;;28.67;39.59;100294.40;106084;1251;60773;-77
2023/09/06 13:52:25;;;;;;;18.10;4.90;;;;;;;28.59;39.73;100295.45;106157;1255;72604;-79
2023/09/06 13:54:52;;;;;;;6.90;3.10;;;;;;;28.53;39.86;100294.06;106191;1251;60597;-77
2023/09/06 13:57:18;;;;;;;10.40;3.60;;;;;;;28.46;40.04;100293.06;107593;1254;71055;-78
2023/09/06 13:59:46;;;;;;;3.70;2.80;;;;;;;28.42;40.30;100292.79;108443;1251;60456;-77
2023/09/06 14:02:13;;;;;;;4.40;2.90;;;;;;;28.42;40.31;100290.61;107924;1251;60152;-77
2023/09/06 14:04:40;;;;;;;5.90;3.10;;;;;;;28.40;40.39;100294.23;106360;1256;72300;-76
2023/09/06 14:07:10;;;;;;;6.10;3.00;;;;;;;28.35;40.72;100289.09;106115;1251;71422;-76
2023/09/06 14:09:37;;;;;;;3.60;2.90;;;;;;;28.30;40.79;100286.73;106139;1257;72479;-78
2023/09/06 14:12:04;;;;;;;2.90;2.40;;;;;;;28.29;41.00;100287.83;105844;1251;60483;-78
2023/09/06 14:14:30;;;;;;;3.10;2.70;;;;;;;28.27;41.10;100287.00;106045;1251;60525;-77
2023/09/06 14:16:57;;;;;;;6.80;3.10;;;;;;;28.28;41.31;100283.67;106120;1256;73934;-78
2023/09/06 14:19:25;;;;;;;3.30;3.00;;;;;;;28.32;41.05;100281.87;105929;1251;70450;-77
2023/09/06 14:21:52;;;;;;;4.40;2.80;;;;;;;28.32;41.11;100280.72;105933;1257;223041;-76
2023/09/06 14:26:05;;;;;;;4.60;3.00;;;;;;;28.31;41.01;100278.75;102966;1295;600167;-77
2023/09/06 14:28:33;;;;;;;4.00;3.10;;;;;;;28.21;41.13;100278.64;105234;1268;60527;-77
2023/09/06 14:31:00;;;;;;;4.00;3.10;;;;;;;28.08;41.38;100286.83;105178;1270;60815;-74
2023/09/06 14:33:28;;;;;;;3.00;2.80;;;;;;;27.93;41.65;100286.80;105067;1267;74520;-75
2023/09/06 14:36:00;;;;;;;3.80;2.60;;;;;;;27.81;41.99;100282.65;105050;1270;70333;-77
2023/09/06 14:38:27;;;;;;;2.90;2.60;;;;;;;27.70;42.28;100285.24;105079;1270;72807;-77
2023/09/06 14:40:55;;;;;;;3.30;2.90;;;;;;;27.60;42.56;100285.71;104967;1268;179245;-75
2023/09/06 14:43:23;;;;;;;3.60;2.70;;;;;;;27.52;42.66;100282.52;105131;1265;60051;-76
2023/09/06 14:45:51;;;;;;;5.10;2.80;;;;;;;27.42;43.03;100284.33;105312;1263;70924;-75
2023/09/06 14:48:18;;;;;;;5.90;3.00;;;;;;;27.30;43.11;100282.66;105289;1267;70148;-76
2023/09/06 14:50:46;;;;;;;7.40;3.40;;;;;;;27.15;43.37;100279.88;105051;1268;71435;-77
2023/09/06 14:53:13;;;;;;;4.20;2.90;;;;;;;27.02;43.71;100280.79;105192;1269;61638;-76
2023/09/06 14:55:41;;;;;;;4.70;2.80;;;;;;;26.88;43.91;100276.63;105152;1268;59874;-77
2023/09/06 14:58:08;;;;;;;4.20;2.50;;;;;;;26.74;44.01;100281.33;104872;1267;72843;-76
2023/09/06 15:00:36;;;;;;;3.10;2.80;;;;;;;26.60;44.39;100284.55;105149;1269;68985;-81
2023/09/06 15:03:04;;;;;;;7.90;3.00;;;;;;;26.51;44.45;100285.45;105646;1270;71077;-78
2023/09/06 15:05:32;;;;;;;2.80;2.60;;;;;;;26.42;44.57;100284.45;105914;1267;59749;-76
2023/09/06 15:08:00;;;;;;;3.90;3.20;;;;;;;26.35;44.81;100283.52;105094;1269;62605;-79
2023/09/06 15:10:32;;;;;;;3.00;2.70;;;;;;;26.27;45.04;100284.48;106076;1264;73042;-75
2023/09/06 15:13:00;;;;;;;3.90;2.50;;;;;;;26.20;45.27;100283.11;106560;1264;69211;-76
2023/09/06 15:15:27;;;;;;;5.80;2.40;;;;;;;26.17;45.50;100281.17;106748;1264;72646;-77
2023/09/06 15:17:55;;;;;;;3.00;2.80;;;;;;;26.15;45.38;100284.16;105987;1268;60096;-77
2023/09/06 15:20:26;;;;;;;2.60;2.40;;;;;;;26.13;45.75;100284.69;105680;1267;60077;-77
2023/09/06 15:22:54;;;;;;;4.00;2.80;;;;;;;26.11;45.87;100279.48;105226;1258;73177;-79
2023/09/06 15:25:21;;;;;;;3.40;2.70;;;;;;;26.09;46.24;100284.75;105442;1266;70085;-79
2023/09/06 15:27:52;;;;;;;4.10;2.70;;;;;;;26.09;46.21;100287.09;105290;1268;72912;-79
2023/09/06 15:30:20;;;;;;;5.70;2.60;;;;;;;26.12;46.24;100289.30;105528;1260;62489;-76
2023/09/06 15:32:47;;;;;;;5.00;2.40;;;;;;;26.14;46.03;100286.49;105453;1264;60407;-76
2023/09/06 15:35:16;;;;;;;3.90;2.50;;;;;;;26.15;45.94;100286.45;105466;1263;73057;-77
2023/09/06 15:38:11;;;;;;;3.30;2.50;;;;;;;26.14;45.85;100286.16;105508;1260;70422;-78
2023/09/06 15:40:39;;;;;;;5.00;2.80;;;;;;;26.11;46.26;100283.52;105652;1263;70790;-78
2023/09/06 15:43:06;;;;;;;2.90;2.20;;;;;;;26.12;46.15;100283.59;105794;1263;59771;-76
2023/09/06 15:45:34;;;;;;;3.40;2.70;;;;;;;26.10;46.21;100280.41;105583;1264;59686;-77
2023/09/06 15:48:02;;;;;;;2.60;2.40;;;;;;;26.05;46.48;100288.09;105644;1264;71913;-78
2023/09/06 15:50:30;;;;;;;4.70;2.70;;;;;;;25.99;46.55;100288.30;105587;1265;69086;-80
2023/09/06 15:52:58;;;;;;;3.20;2.60;;;;;;;25.94;46.81;100289.67;105470;1263;73109;-78
2023/09/06 15:55:26;;;;;;;3.10;2.20;;;;;;;25.88;46.96;100288.02;105487;1263;59743;-77
2023/09/06 15:57:53;;;;;;;2.60;2.40;;;;;;;25.83;47.17;100292.30;105673;1262;59552;-77
2023/09/06 16:00:21;;;;;;;3.00;2.40;;;;;;;25.79;47.31;100296.02;105593;1263;72383;-77
2023/09/06 16:02:51;;;;;;;4.00;2.70;;;;;;;25.77;47.50;100293.05;105487;1263;69418;-80
2023/09/06 16:05:19;;;;;;;3.40;2.30;;;;;;;25.71;47.53;100293.16;105461;1261;71473;-74
2023/09/06 16:07:46;;;;;;;4.60;2.70;;;;;;;25.60;47.70;100293.38;105704;1261;59791;-75
2023/09/06 16:10:14;;;;;;;4.70;2.90;;;;;;;25.48;48.03;100294.26;105777;1261;59977;-74
2023/09/06 16:12:42;;;;;;;4.70;2.50;;;;;;;25.35;48.15;100293.66;105834;1264;72975;-76
2023/09/06 16:15:15;;;;;;;4.80;3.40;;;;;;;25.23;48.33;100293.21;105516;1266;69196;-77
2023/09/06 16:17:44;;;;;;;9.60;2.90;;;;;;;25.06;48.74;100296.56;106194;1259;71139;-76
2023/09/06 16:20:12;;;;;;;4.90;2.50;;;;;;;24.89;49.14;100295.56;106139;1262;60552;-77
2023/09/06 16:22:40;;;;;;;4.30;2.60;;;;;;;24.76;49.47;100297.58;106872;1257;60006;-77
2023/09/06 16:25:10;;;;;;;3.30;2.90;;;;;;;24.65;49.62;100302.69;107504;1254;73046;-80
2023/09/06 16:27:37;;;;;;;3.20;2.90;;;;;;;24.55;50.00;100305.03;107759;1257;70071;-79
2023/09/06 16:30:07;;;;;;;5.20;2.80;;;;;;;24.39;50.38;100307.02;106155;1254;71408;-82
2023/09/06 16:32:36;;;;;;;4.40;3.20;;;;;;;24.21;50.84;100308.70;106102;1257;59682;-75
2023/09/06 16:35:07;;;;;;;4.70;3.10;;;;;;;24.00;51.15;100303.89;105887;1259;60090;-71
2023/09/06 16:37:38;;;;;;;3.20;2.70;;;;;;;23.87;51.51;100308.87;106000;1254;73067;-73
2023/09/06 16:40:10;;;;;;;5.00;3.20;;;;;;;23.78;51.62;100311.98;105971;1254;70130;-71
2023/09/06 16:42:39;;;;;;;4.50;2.90;;;;;;;23.68;51.96;100309.01;105361;1259;72688;-74
2023/09/06 16:45:08;;;;;;;4.80;3.00;;;;;;;23.57;52.36;100308.69;106257;1258;60983;-76
2023/09/06 16:47:35;;;;;;;5.90;3.10;;;;;;;23.45;52.66;100309.57;106024;1260;59787;-76
2023/09/06 16:50:03;;;;;;;5.40;2.90;;;;;;;23.29;53.05;100308.66;106361;1254;72973;-76
2023/09/06 16:52:31;;;;;;;6.50;2.90;;;;;;;23.20;53.34;100309.70;106079;1259;69217;-73
2023/09/06 16:54:59;;;;;;;3.30;2.90;;;;;;;23.09;53.70;100311.95;105342;1260;71365;-73
2023/09/06 16:57:27;;;;;;;6.00;3.10;;;;;;;22.99;53.93;100314.36;105339;1254;60042;-73
2023/09/06 16:59:54;;;;;;;4.80;3.20;;;;;;;22.93;54.15;100317.34;105498;1254;59628;-76
2023/09/06 17:02:23;;;;;;;6.70;4.00;;;;;;;22.85;54.19;100318.40;106074;1254;73605;-76
2023/09/06 17:04:51;;;;;;;4.20;2.90;;;;;;;22.77;54.55;100319.79;106516;1259;68681;-75
2023/09/06 17:07:19;;;;;;;4.70;3.40;;;;;;;22.70;54.70;100321.70;105724;1257;72685;-75
2023/09/06 17:09:47;;;;;;;4.90;3.30;;;;;;;22.64;54.76;100326.35;105968;1254;59711;-74
2023/09/06 17:12:15;;;;;;;7.30;3.70;;;;;;;22.58;55.03;100325.73;105578;1255;60073;-75
2023/09/06 17:14:42;;;;;;;8.00;3.00;;;;;;;22.53;55.18;100327.72;105866;1260;73055;-73
2023/09/06 17:17:09;;;;;;;4.30;3.00;;;;;;;22.48;55.58;100328.09;105509;1260;69247;-77
2023/09/06 17:19:37;;;;;;;5.50;3.40;;;;;;;22.42;55.56;100331.77;105761;1257;72692;-75
2023/09/06 17:22:04;;;;;;;4.80;3.10;;;;;;;22.35;55.82;100334.36;105616;1254;60374;-77
2023/09/06 17:24:32;;;;;;;4.50;3.30;;;;;;;22.30;56.03;100332.66;105488;1254;59797;-74
2023/09/06 17:26:59;;;;;;;4.90;3.50;;;;;;;22.23;56.06;100334.69;105544;1259;73060;-73
2023/09/06 17:29:29;;;;;;;4.60;3.30;;;;;;;22.19;56.29;100336.04;105894;1255;69917;-76
2023/09/06 17:31:56;;;;;;;9.70;4.60;;;;;;;22.14;56.45;100335.35;106146;1254;71485;-79
2023/09/06 17:34:24;;;;;;;6.30;3.60;;;;;;;22.09;56.68;100339.05;107279;1254;59157;-79
2023/09/06 17:36:53;;;;;;;7.60;4.20;;;;;;;22.02;56.90;100337.56;107432;1254;59266;-79
2023/09/06 17:39:21;;;;;;;6.40;4.60;;;;;;;21.98;57.10;100338.11;107142;1255;71797;-77
2023/09/06 17:41:48;;;;;;;6.00;4.00;;;;;;;21.92;57.36;100336.55;106201;1254;70482;-78
2023/09/06 17:44:16;;;;;;;5.70;4.30;;;;;;;21.86;57.56;100335.23;105756;1259;72655;-80
2023/09/06 17:46:43;;;;;;;8.60;4.10;;;;;;;21.80;57.59;100339.46;105898;1260;59638;-79
2023/09/06 17:49:12;;;;;;;5.50;4.30;;;;;;;21.76;57.70;100341.67;105962;1254;59742;-76
2023/09/06 17:51:44;;;;;;;7.20;4.70;;;;;;;21.73;58.00;100345.08;105876;1254;72101;-75
2023/09/06 17:54:13;;;;;;;7.00;4.30;;;;;;;21.66;58.20;100344.27;105439;1254;70157;-79
2023/09/06 17:56:40;;;;;;;8.30;4.20;;;;;;;21.62;58.38;100344.94;105926;1257;72809;-76
2023/09/06 17:59:08;;;;;;;5.10;4.60;;;;;;;21.58;58.54;100348.73;105444;1254;59677;-77
2023/09/06 18:01:35;;;;;;;8.00;4.60;;;;;;;21.52;58.53;100344.17;105881;1259;59736;-77
2023/09/06 18:04:05;;;;;;;7.20;4.80;;;;;;;21.47;58.69;100346.30;105708;1254;73099;-77
2023/09/06 18:06:33;;;;;;;6.40;4.70;;;;;;;21.43;58.82;100346.89;105893;1260;69177;-80
2023/09/06 18:09:07;;;;;;;6.30;4.00;;;;;;;21.40;58.86;100348.06;105830;1259;72783;-79
2023/09/06 18:11:36;;;;;;;6.70;4.30;;;;;;;21.37;58.97;100350.42;105795;1254;60324;-79
2023/09/06 18:14:07;;;;;;;5.60;4.30;;;;;;;21.35;59.15;100351.54;105804;1254;61002;-79
2023/09/06 18:16:42;;;;;;;4.60;3.90;;;;;;;21.29;59.35;100350.39;106173;1254;73628;-79
2023/09/06 18:19:10;;;;;;;5.90;4.60;;;;;;;21.26;59.40;100346.40;106967;1254;70568;-81
2023/09/06 18:21:40;;;;;;;5.10;3.80;;;;;;;21.24;59.47;100343.90;106067;1258;71540;-79
2023/09/06 18:24:13;;;;;;;4.30;3.50;;;;;;;21.23;59.50;100348.79;105922;1259;59682;-77
2023/09/06 18:26:41;;;;;;;5.60;4.40;;;;;;;21.21;59.49;100350.59;105949;1257;60007;-76
2023/09/06 18:29:20;;;;;;;4.60;4.00;;;;;;;21.20;59.52;100344.61;105914;1254;71867;-79
2023/09/06 18:31:50;;;;;;;6.90;4.00;;;;;;;21.20;59.65;100346.08;106044;1254;70182;-77